sensor_id;sensor_type;location;lat;lon;timestamp;temperature;humidity
34640;DHT22;22600;48.186;11.526;2023-02-02T00:01:27;21.00;66.60
34640;DHT22;22600;48.186;11.526;2023-02-02T00:03:53;20.90;66.50
34640;DHT22;22600;48.186;11.526;2023-02-02T00:06:21;21.00;66.50
34640;DHT22;22600;48.186;11.526;2023-02-02T00:08:48;21.00;66.70
34640;DHT22;22600;48.186;11.526;2023-02-02T00:11:14;20.90;66.60
34640;DHT22;22600;48.186;11.526;2023-02-02T00:13:40;20.90;66.70
34640;DHT22;22600;48.186;11.526;2023-02-02T00:19:00;21.00;66.90
34640;DHT22;22600;48.186;11.526;2023-02-02T00:21:26;21.00;67.50
34640;DHT22;22600;48.186;11.526;2023-02-02T00:23:52;21.00;66.60
34640;DHT22;22600;48.186;11.526;2023-02-02T00:26:18;21.00;67.20
34640;DHT22;22600;48.186;11.526;2023-02-02T00:28:44;21.00;66.60
34640;DHT22;22600;48.186;11.526;2023-02-02T00:31:10;20.90;66.50
34640;DHT22;22600;48.186;11.526;2023-02-02T00:33:36;20.90;67.10
34640;DHT22;22600;48.186;11.526;2023-02-02T00:36:01;21.00;67.30
34640;DHT22;22600;48.186;11.526;2023-02-02T00:38:27;21.00;66.70
34640;DHT22;22600;48.186;11.526;2023-02-02T00:40:53;21.00;66.60
34640;DHT22;22600;48.186;11.526;2023-02-02T00:43:18;20.90;67.20
34640;DHT22;22600;48.186;11.526;2023-02-02T00:45:44;20.90;66.60
34640;DHT22;22600;48.186;11.526;2023-02-02T00:48:09;20.90;66.70
34640;DHT22;22600;48.186;11.526;2023-02-02T00:50:35;20.90;67.30
34640;DHT22;22600;48.186;11.526;2023-02-02T00:53:01;20.90;66.70
34640;DHT22;22600;48.186;11.526;2023-02-02T00:55:27;20.90;67.20
34640;DHT22;22600;48.186;11.526;2023-02-02T00:57:53;20.90;67.10
34640;DHT22;22600;48.186;11.526;2023-02-02T01:00:21;21.00;67.10
34640;DHT22;22600;48.186;11.526;2023-02-02T01:02:52;21.00;67.00
34640;DHT22;22600;48.186;11.526;2023-02-02T01:05:17;21.00;67.30
34640;DHT22;22600;48.186;11.526;2023-02-02T01:07:43;21.00;67.40
34640;DHT22;22600;48.186;11.526;2023-02-02T01:10:14;21.00;66.60
34640;DHT22;22600;48.186;11.526;2023-02-02T01:12:41;20.90;67.10
34640;DHT22;22600;48.186;11.526;2023-02-02T01:15:08;20.90;66.60
34640;DHT22;22600;48.186;11.526;2023-02-02T01:17:33;22.20;67.90
34640;DHT22;22600;48.186;11.526;2023-02-02T01:19:59;20.90;66.70
34640;DHT22;22600;48.186;11.526;2023-02-02T01:22:25;20.90;67.40
34640;DHT22;22600;48.186;11.526;2023-02-02T01:24:51;20.90;67.50
34640;DHT22;22600;48.186;11.526;2023-02-02T01:27:17;21.00;67.50
34640;DHT22;22600;48.186;11.526;2023-02-02T01:29:43;21.00;67.50
34640;DHT22;22600;48.186;11.526;2023-02-02T01:32:09;20.90;66.80
34640;DHT22;22600;48.186;11.526;2023-02-02T01:34:35;20.90;67.40
34640;DHT22;22600;48.186;11.526;2023-02-02T01:37:01;20.90;67.40
34640;DHT22;22600;48.186;11.526;2023-02-02T01:39:27;20.90;67.30
34640;DHT22;22600;48.186;11.526;2023-02-02T01:41:52;21.00;67.50
34640;DHT22;22600;48.186;11.526;2023-02-02T01:47:25;20.90;67.50
34640;DHT22;22600;48.186;11.526;2023-02-02T01:49:52;20.90;67.40
34640;DHT22;22600;48.186;11.526;2023-02-02T01:52:21;20.90;67.20
34640;DHT22;22600;48.186;11.526;2023-02-02T01:54:51;20.90;67.20
34640;DHT22;22600;48.186;11.526;2023-02-02T01:59:50;20.90;67.60
34640;DHT22;22600;48.186;11.526;2023-02-02T02:02:18;20.90;67.70
34640;DHT22;22600;48.186;11.526;2023-02-02T02:04:43;20.90;67.10
34640;DHT22;22600;48.186;11.526;2023-02-02T02:07:10;20.90;67.10
34640;DHT22;22600;48.186;11.526;2023-02-02T02:09:36;20.90;67.70
34640;DHT22;22600;48.186;11.526;2023-02-02T02:12:01;20.90;67.60
34640;DHT22;22600;48.186;11.526;2023-02-02T02:14:27;20.90;66.90
34640;DHT22;22600;48.186;11.526;2023-02-02T02:17:39;20.90;67.50
34640;DHT22;22600;48.186;11.526;2023-02-02T02:26:59;20.90;66.90
34640;DHT22;22600;48.186;11.526;2023-02-02T02:34:53;20.90;67.50
34640;DHT22;22600;48.186;11.526;2023-02-02T02:40:27;20.90;67.00
34640;DHT22;22600;48.186;11.526;2023-02-02T02:43:12;20.80;66.80
34640;DHT22;22600;48.186;11.526;2023-02-02T02:45:40;20.90;66.90
34640;DHT22;22600;48.186;11.526;2023-02-02T02:48:09;20.90;67.40
34640;DHT22;22600;48.186;11.526;2023-02-02T02:50:35;20.90;67.60
34640;DHT22;22600;48.186;11.526;2023-02-02T02:53:23;21.00;67.90
34640;DHT22;22600;48.186;11.526;2023-02-02T02:56:11;20.90;67.60
34640;DHT22;22600;48.186;11.526;2023-02-02T02:58:58;20.90;67.80
34640;DHT22;22600;48.186;11.526;2023-02-02T03:01:36;20.90;67.70
34640;DHT22;22600;48.186;11.526;2023-02-02T03:04:26;20.90;67.90
34640;DHT22;22600;48.186;11.526;2023-02-02T03:07:33;21.00;67.60
34640;DHT22;22600;48.186;11.526;2023-02-02T03:09:52;20.90;67.60
34640;DHT22;22600;48.186;11.526;2023-02-02T03:12:19;21.00;67.60
34640;DHT22;22600;48.186;11.526;2023-02-02T03:14:44;20.90;67.70
34640;DHT22;22600;48.186;11.526;2023-02-02T03:17:10;20.90;67.50
34640;DHT22;22600;48.186;11.526;2023-02-02T03:19:35;20.90;67.50
34640;DHT22;22600;48.186;11.526;2023-02-02T03:24:27;20.90;67.30
34640;DHT22;22600;48.186;11.526;2023-02-02T03:26:53;20.90;67.40
34640;DHT22;22600;48.186;11.526;2023-02-02T03:29:19;20.90;67.40
34640;DHT22;22600;48.186;11.526;2023-02-02T03:31:45;20.90;67.30
34640;DHT22;22600;48.186;11.526;2023-02-02T03:36:37;20.90;67.50
34640;DHT22;22600;48.186;11.526;2023-02-02T03:39:03;20.90;67.40
34640;DHT22;22600;48.186;11.526;2023-02-02T03:41:28;20.90;67.40
34640;DHT22;22600;48.186;11.526;2023-02-02T03:43:54;20.90;67.30
34640;DHT22;22600;48.186;11.526;2023-02-02T03:46:19;20.90;67.10
34640;DHT22;22600;48.186;11.526;2023-02-02T03:51:13;20.90;67.10
34640;DHT22;22600;48.186;11.526;2023-02-02T03:53:40;20.90;67.40
34640;DHT22;22600;48.186;11.526;2023-02-02T03:56:08;20.90;67.50
34640;DHT22;22600;48.186;11.526;2023-02-02T03:58:34;20.90;67.50
34640;DHT22;22600;48.186;11.526;2023-02-02T04:01:04;20.90;67.70
34640;DHT22;22600;48.186;11.526;2023-02-02T04:03:30;20.90;68.30
34640;DHT22;22600;48.186;11.526;2023-02-02T04:05:56;20.90;67.80
34640;DHT22;22600;48.186;11.526;2023-02-02T04:10:47;20.90;67.40
34640;DHT22;22600;48.186;11.526;2023-02-02T04:13:13;21.00;68.10
34640;DHT22;22600;48.186;11.526;2023-02-02T04:15:39;20.90;68.10
34640;DHT22;22600;48.186;11.526;2023-02-02T04:18:05;20.90;66.70
34640;DHT22;22600;48.186;11.526;2023-02-02T04:20:30;20.90;66.20
34640;DHT22;22600;48.186;11.526;2023-02-02T04:22:56;21.00;66.10
34640;DHT22;22600;48.186;11.526;2023-02-02T04:25:22;20.90;65.60
34640;DHT22;22600;48.186;11.526;2023-02-02T04:27:47;21.00;65.50
34640;DHT22;22600;48.186;11.526;2023-02-02T04:30:13;21.00;65.20
34640;DHT22;22600;48.186;11.526;2023-02-02T04:32:38;21.00;65.40
34640;DHT22;22600;48.186;11.526;2023-02-02T04:35:04;20.90;65.20
34640;DHT22;22600;48.186;11.526;2023-02-02T04:37:30;21.00;65.00
34640;DHT22;22600;48.186;11.526;2023-02-02T04:39:56;21.00;64.90
34640;DHT22;22600;48.186;11.526;2023-02-02T04:42:22;21.00;64.70
34640;DHT22;22600;48.186;11.526;2023-02-02T04:47:13;21.00;64.60
34640;DHT22;22600;48.186;11.526;2023-02-02T04:49:39;21.00;64.50
34640;DHT22;22600;48.186;11.526;2023-02-02T04:52:05;21.00;64.40
34640;DHT22;22600;48.186;11.526;2023-02-02T04:54:31;21.00;64.20
34640;DHT22;22600;48.186;11.526;2023-02-02T04:56:57;21.00;64.20
34640;DHT22;22600;48.186;11.526;2023-02-02T04:59:22;21.00;64.20
34640;DHT22;22600;48.186;11.526;2023-02-02T05:01:48;21.00;64.10
34640;DHT22;22600;48.186;11.526;2023-02-02T05:04:15;21.00;64.00
34640;DHT22;22600;48.186;11.526;2023-02-02T05:06:41;21.00;64.00
34640;DHT22;22600;48.186;11.526;2023-02-02T05:09:06;21.00;64.00
34640;DHT22;22600;48.186;11.526;2023-02-02T05:11:32;21.30;64.10
34640;DHT22;22600;48.186;11.526;2023-02-02T05:13:57;21.00;63.80
34640;DHT22;22600;48.186;11.526;2023-02-02T05:16:23;21.00;63.70
34640;DHT22;22600;48.186;11.526;2023-02-02T05:18:50;21.00;63.70
34640;DHT22;22600;48.186;11.526;2023-02-02T05:21:16;21.10;63.70
34640;DHT22;22600;48.186;11.526;2023-02-02T05:23:42;21.00;63.60
34640;DHT22;22600;48.186;11.526;2023-02-02T05:26:15;21.00;63.50
34640;DHT22;22600;48.186;11.526;2023-02-02T05:28:41;21.00;63.60
34640;DHT22;22600;48.186;11.526;2023-02-02T05:31:07;21.00;63.60
34640;DHT22;22600;48.186;11.526;2023-02-02T05:33:33;21.00;63.50
34640;DHT22;22600;48.186;11.526;2023-02-02T05:35:58;21.00;63.50
34640;DHT22;22600;48.186;11.526;2023-02-02T05:38:24;21.00;63.30
34640;DHT22;22600;48.186;11.526;2023-02-02T05:40:49;21.00;63.30
34640;DHT22;22600;48.186;11.526;2023-02-02T05:43:15;21.00;63.20
34640;DHT22;22600;48.186;11.526;2023-02-02T05:45:41;21.00;63.20
34640;DHT22;22600;48.186;11.526;2023-02-02T05:48:09;21.00;63.20
34640;DHT22;22600;48.186;11.526;2023-02-02T05:50:37;21.10;63.40
34640;DHT22;22600;48.186;11.526;2023-02-02T05:53:02;21.00;63.50
34640;DHT22;22600;48.186;11.526;2023-02-02T05:55:28;21.10;63.40
34640;DHT22;22600;48.186;11.526;2023-02-02T05:57:53;18.80;61.80
34640;DHT22;22600;48.186;11.526;2023-02-02T06:00:19;21.00;62.40
34640;DHT22;22600;48.186;11.526;2023-02-02T06:02:45;21.00;61.20
34640;DHT22;22600;48.186;11.526;2023-02-02T06:05:10;21.00;60.30
34640;DHT22;22600;48.186;11.526;2023-02-02T06:07:36;21.00;59.90
34640;DHT22;22600;48.186;11.526;2023-02-02T06:10:02;21.00;59.90
34640;DHT22;22600;48.186;11.526;2023-02-02T06:12:28;21.00;60.00
34640;DHT22;22600;48.186;11.526;2023-02-02T06:14:54;21.00;60.10
34640;DHT22;22600;48.186;11.526;2023-02-02T06:17:19;20.90;60.10
34640;DHT22;22600;48.186;11.526;2023-02-02T06:19:45;21.00;60.20
34640;DHT22;22600;48.186;11.526;2023-02-02T06:22:11;20.90;60.10
34640;DHT22;22600;48.186;11.526;2023-02-02T06:24:36;21.00;60.20
34640;DHT22;22600;48.186;11.526;2023-02-02T06:27:02;21.00;60.30
34640;DHT22;22600;48.186;11.526;2023-02-02T06:29:27;21.00;60.30
34640;DHT22;22600;48.186;11.526;2023-02-02T06:31:53;21.00;60.40
34640;DHT22;22600;48.186;11.526;2023-02-02T06:34:19;21.10;60.60
34640;DHT22;22600;48.186;11.526;2023-02-02T06:36:44;21.00;60.50
34640;DHT22;22600;48.186;11.526;2023-02-02T06:39:10;21.00;60.60
34640;DHT22;22600;48.186;11.526;2023-02-02T06:41:35;21.00;60.60
34640;DHT22;22600;48.186;11.526;2023-02-02T06:44:01;21.00;60.80
34640;DHT22;22600;48.186;11.526;2023-02-02T06:46:27;21.00;60.80
34640;DHT22;22600;48.186;11.526;2023-02-02T06:48:52;21.00;60.90
34640;DHT22;22600;48.186;11.526;2023-02-02T06:51:18;21.00;60.90
34640;DHT22;22600;48.186;11.526;2023-02-02T06:53:46;21.00;61.00
34640;DHT22;22600;48.186;11.526;2023-02-02T06:56:13;21.00;60.90
34640;DHT22;22600;48.186;11.526;2023-02-02T06:58:39;21.00;61.00
34640;DHT22;22600;48.186;11.526;2023-02-02T07:01:08;21.00;61.00
34640;DHT22;22600;48.186;11.526;2023-02-02T07:03:35;21.00;61.10
34640;DHT22;22600;48.186;11.526;2023-02-02T07:06:15;21.00;61.10
34640;DHT22;22600;48.186;11.526;2023-02-02T07:08:41;21.00;61.10
34640;DHT22;22600;48.186;11.526;2023-02-02T07:11:07;20.60;60.90
34640;DHT22;22600;48.186;11.526;2023-02-02T07:13:33;21.00;61.10
34640;DHT22;22600;48.186;11.526;2023-02-02T07:15:59;21.00;61.10
34640;DHT22;22600;48.186;11.526;2023-02-02T07:18:25;21.00;61.20
34640;DHT22;22600;48.186;11.526;2023-02-02T07:20:50;21.00;61.20
34640;DHT22;22600;48.186;11.526;2023-02-02T07:23:16;21.00;61.20
34640;DHT22;22600;48.186;11.526;2023-02-02T07:25:41;21.00;61.30
34640;DHT22;22600;48.186;11.526;2023-02-02T07:28:07;21.00;61.20
34640;DHT22;22600;48.186;11.526;2023-02-02T07:30:33;21.00;61.30
34640;DHT22;22600;48.186;11.526;2023-02-02T07:32:58;21.00;61.20
34640;DHT22;22600;48.186;11.526;2023-02-02T07:35:24;21.00;61.30
34640;DHT22;22600;48.186;11.526;2023-02-02T07:37:54;21.00;61.20
34640;DHT22;22600;48.186;11.526;2023-02-02T07:40:20;21.00;61.30
34640;DHT22;22600;48.186;11.526;2023-02-02T07:42:46;21.00;61.20
34640;DHT22;22600;48.186;11.526;2023-02-02T07:47:38;21.00;61.30
34640;DHT22;22600;48.186;11.526;2023-02-02T07:50:04;21.00;61.30
34640;DHT22;22600;48.186;11.526;2023-02-02T07:54:55;21.00;61.30
34640;DHT22;22600;48.186;11.526;2023-02-02T07:57:22;21.00;61.30
34640;DHT22;22600;48.186;11.526;2023-02-02T07:59:47;21.00;61.30
34640;DHT22;22600;48.186;11.526;2023-02-02T08:04:40;21.00;61.30
34640;DHT22;22600;48.186;11.526;2023-02-02T08:07:06;24.60;63.50
34640;DHT22;22600;48.186;11.526;2023-02-02T08:11:57;21.00;61.30
34640;DHT22;22600;48.186;11.526;2023-02-02T08:14:26;21.00;61.40
34640;DHT22;22600;48.186;11.526;2023-02-02T08:16:52;21.00;61.30
34640;DHT22;22600;48.186;11.526;2023-02-02T08:19:17;21.00;61.30
34640;DHT22;22600;48.186;11.526;2023-02-02T08:21:43;21.10;61.50
34640;DHT22;22600;48.186;11.526;2023-02-02T08:24:08;21.00;61.40
34640;DHT22;22600;48.186;11.526;2023-02-02T08:26:34;21.00;61.40
34640;DHT22;22600;48.186;11.526;2023-02-02T08:29:03;21.00;61.40
34640;DHT22;22600;48.186;11.526;2023-02-02T08:31:35;21.00;61.40
34640;DHT22;22600;48.186;11.526;2023-02-02T08:34:01;21.00;62.00
34640;DHT22;22600;48.186;11.526;2023-02-02T08:36:28;21.00;61.40
34640;DHT22;22600;48.186;11.526;2023-02-02T08:38:54;21.00;61.40
34640;DHT22;22600;48.186;11.526;2023-02-02T08:41:22;21.00;61.50
34640;DHT22;22600;48.186;11.526;2023-02-02T08:43:48;21.00;61.50
34640;DHT22;22600;48.186;11.526;2023-02-02T08:46:15;21.10;61.60
34640;DHT22;22600;48.186;11.526;2023-02-02T08:48:41;21.00;61.50
34640;DHT22;22600;48.186;11.526;2023-02-02T08:51:09;21.00;61.60
34640;DHT22;22600;48.186;11.526;2023-02-02T08:53:36;21.00;61.50
34640;DHT22;22600;48.186;11.526;2023-02-02T08:56:06;21.00;61.50
34640;DHT22;22600;48.186;11.526;2023-02-02T08:58:33;21.10;61.50
34640;DHT22;22600;48.186;11.526;2023-02-02T09:01:28;21.00;61.50
34640;DHT22;22600;48.186;11.526;2023-02-02T09:04:00;21.10;61.50
34640;DHT22;22600;48.186;11.526;2023-02-02T09:06:37;21.10;61.50
34640;DHT22;22600;48.186;11.526;2023-02-02T09:09:05;21.10;61.50
34640;DHT22;22600;48.186;11.526;2023-02-02T09:11:31;21.10;61.60
34640;DHT22;22600;48.186;11.526;2023-02-02T09:13:58;21.00;61.50
34640;DHT22;22600;48.186;11.526;2023-02-02T09:16:25;21.10;61.50
34640;DHT22;22600;48.186;11.526;2023-02-02T09:18:51;21.00;61.40
34640;DHT22;22600;48.186;11.526;2023-02-02T09:21:18;21.10;61.50
34640;DHT22;22600;48.186;11.526;2023-02-02T09:23:44;21.10;61.50
34640;DHT22;22600;48.186;11.526;2023-02-02T09:26:14;21.10;61.50
34640;DHT22;22600;48.186;11.526;2023-02-02T09:28:42;21.00;61.50
34640;DHT22;22600;48.186;11.526;2023-02-02T09:31:08;21.00;61.50
34640;DHT22;22600;48.186;11.526;2023-02-02T09:33:35;21.10;61.50
34640;DHT22;22600;48.186;11.526;2023-02-02T09:36:15;21.10;61.50
34640;DHT22;22600;48.186;11.526;2023-02-02T09:38:41;21.00;61.40
34640;DHT22;22600;48.186;11.526;2023-02-02T09:41:27;21.10;61.40
34640;DHT22;22600;48.186;11.526;2023-02-02T09:52:15;21.10;61.40
34640;DHT22;22600;48.186;11.526;2023-02-02T09:54:45;21.10;61.40
34640;DHT22;22600;48.186;11.526;2023-02-02T09:57:20;21.10;61.50
34640;DHT22;22600;48.186;11.526;2023-02-02T09:59:48;21.10;61.50
34640;DHT22;22600;48.186;11.526;2023-02-02T10:02:25;21.00;61.40
34640;DHT22;22600;48.186;11.526;2023-02-02T10:05:01;21.10;61.60
34640;DHT22;22600;48.186;11.526;2023-02-02T10:07:40;21.10;61.40
34640;DHT22;22600;48.186;11.526;2023-02-02T10:10:17;21.10;61.50
34640;DHT22;22600;48.186;11.526;2023-02-02T10:13:02;21.10;61.50
34640;DHT22;22600;48.186;11.526;2023-02-02T10:21:06;21.10;61.40
34640;DHT22;22600;48.186;11.526;2023-02-02T10:23:39;21.10;61.60
34640;DHT22;22600;48.186;11.526;2023-02-02T10:31:18;21.10;61.50
34640;DHT22;22600;48.186;11.526;2023-02-02T10:33:56;21.10;61.50
34640;DHT22;22600;48.186;11.526;2023-02-02T10:36:46;21.10;61.50
34640;DHT22;22600;48.186;11.526;2023-02-02T10:44:52;21.10;61.60
34640;DHT22;22600;48.186;11.526;2023-02-02T10:47:24;21.10;61.50
34640;DHT22;22600;48.186;11.526;2023-02-02T10:50:36;21.10;61.50
34640;DHT22;22600;48.186;11.526;2023-02-02T10:52:47;21.10;61.50
34640;DHT22;22600;48.186;11.526;2023-02-02T11:03:12;21.10;61.50
34640;DHT22;22600;48.186;11.526;2023-02-02T11:05:38;21.10;61.50
34640;DHT22;22600;48.186;11.526;2023-02-02T11:08:45;21.10;61.40
34640;DHT22;22600;48.186;11.526;2023-02-02T11:11:23;24.00;63.30
34640;DHT22;22600;48.186;11.526;2023-02-02T11:13:58;21.10;61.50
34640;DHT22;22600;48.186;11.526;2023-02-02T11:16:30;21.10;61.50
34640;DHT22;22600;48.186;11.526;2023-02-02T11:18:56;21.10;62.10
34640;DHT22;22600;48.186;11.526;2023-02-02T11:21:26;21.10;61.50
34640;DHT22;22600;48.186;11.526;2023-02-02T11:23:54;21.10;61.40
34640;DHT22;22600;48.186;11.526;2023-02-02T11:26:22;21.10;61.50
34640;DHT22;22600;48.186;11.526;2023-02-02T11:28:49;16.70;59.00
34640;DHT22;22600;48.186;11.526;2023-02-02T11:31:36;21.10;61.50
34640;DHT22;22600;48.186;11.526;2023-02-02T11:34:21;21.10;61.50
34640;DHT22;22600;48.186;11.526;2023-02-02T11:39:22;21.10;61.50
34640;DHT22;22600;48.186;11.526;2023-02-02T11:41:47;21.10;61.50
34640;DHT22;22600;48.186;11.526;2023-02-02T11:44:23;21.10;61.50
34640;DHT22;22600;48.186;11.526;2023-02-02T11:46:49;21.10;61.50
34640;DHT22;22600;48.186;11.526;2023-02-02T11:49:18;21.20;61.70
34640;DHT22;22600;48.186;11.526;2023-02-02T11:52:00;21.10;61.50
34640;DHT22;22600;48.186;11.526;2023-02-02T11:54:37;21.10;61.50
34640;DHT22;22600;48.186;11.526;2023-02-02T11:57:07;21.10;61.40
34640;DHT22;22600;48.186;11.526;2023-02-02T11:59:39;21.10;61.50
34640;DHT22;22600;48.186;11.526;2023-02-02T12:02:25;21.10;61.40
34640;DHT22;22600;48.186;11.526;2023-02-02T12:04:55;21.10;61.60
34640;DHT22;22600;48.186;11.526;2023-02-02T12:09:49;18.50;59.90
34640;DHT22;22600;48.186;11.526;2023-02-02T12:12:37;21.20;61.60
34640;DHT22;22600;48.186;11.526;2023-02-02T12:17:37;21.20;61.50
34640;DHT22;22600;48.186;11.526;2023-02-02T12:31:23;21.20;61.50
34640;DHT22;22600;48.186;11.526;2023-02-02T12:42:17;21.20;61.60
34640;DHT22;22600;48.186;11.526;2023-02-02T12:49:51;21.20;61.60
34640;DHT22;22600;48.186;11.526;2023-02-02T12:52:26;21.20;61.60
34640;DHT22;22600;48.186;11.526;2023-02-02T12:55:16;21.20;61.60
34640;DHT22;22600;48.186;11.526;2023-02-02T13:08:48;21.30;61.60
34640;DHT22;22600;48.186;11.526;2023-02-02T13:11:21;21.20;61.60
34640;DHT22;22600;48.186;11.526;2023-02-02T13:13:59;21.20;61.50
34640;DHT22;22600;48.186;11.526;2023-02-02T13:16:26;21.20;61.60
34640;DHT22;22600;48.186;11.526;2023-02-02T13:19:07;21.20;61.50
34640;DHT22;22600;48.186;11.526;2023-02-02T13:21:36;21.20;61.60
34640;DHT22;22600;48.186;11.526;2023-02-02T13:24:06;21.20;61.50
34640;DHT22;22600;48.186;11.526;2023-02-02T13:26:41;21.20;61.60
34640;DHT22;22600;48.186;11.526;2023-02-02T13:31:42;21.20;61.60
34640;DHT22;22600;48.186;11.526;2023-02-02T13:34:25;21.20;61.60
34640;DHT22;22600;48.186;11.526;2023-02-02T13:37:26;21.10;61.50
34640;DHT22;22600;48.186;11.526;2023-02-02T13:39:58;21.20;61.60
34640;DHT22;22600;48.186;11.526;2023-02-02T13:42:48;21.20;61.50
34640;DHT22;22600;48.186;11.526;2023-02-02T13:45:23;21.20;61.50
34640;DHT22;22600;48.186;11.526;2023-02-02T13:48:03;21.20;61.50
34640;DHT22;22600;48.186;11.526;2023-02-02T13:50:46;21.20;61.60
34640;DHT22;22600;48.186;11.526;2023-02-02T13:56:34;21.20;61.50
34640;DHT22;22600;48.186;11.526;2023-02-02T13:59:33;21.20;61.70
34640;DHT22;22600;48.186;11.526;2023-02-02T14:02:00;21.20;62.40
34640;DHT22;22600;48.186;11.526;2023-02-02T14:04:29;21.20;62.70
34640;DHT22;22600;48.186;11.526;2023-02-02T14:07:01;21.20;63.30
34640;DHT22;22600;48.186;11.526;2023-02-02T14:09:32;21.20;63.90
34640;DHT22;22600;48.186;11.526;2023-02-02T14:12:05;21.20;63.40
34640;DHT22;22600;48.186;11.526;2023-02-02T14:14:32;21.20;63.60
34640;DHT22;22600;48.186;11.526;2023-02-02T14:22:16;21.20;63.30
34640;DHT22;22600;48.186;11.526;2023-02-02T14:24:50;21.30;63.50
34640;DHT22;22600;48.186;11.526;2023-02-02T14:34:57;21.20;63.10
34640;DHT22;22600;48.186;11.526;2023-02-02T14:42:42;21.30;62.80
34640;DHT22;22600;48.186;11.526;2023-02-02T14:48:10;21.20;62.60
34640;DHT22;22600;48.186;11.526;2023-02-02T14:53:24;21.20;62.50
34640;DHT22;22600;48.186;11.526;2023-02-02T14:56:02;21.30;62.60
34640;DHT22;22600;48.186;11.526;2023-02-02T14:58:33;21.30;62.50
34640;DHT22;22600;48.186;11.526;2023-02-02T15:03:55;21.30;62.50
34640;DHT22;22600;48.186;11.526;2023-02-02T15:20:23;21.30;62.60
34640;DHT22;22600;48.186;11.526;2023-02-02T15:22:57;21.30;62.50
34640;DHT22;22600;48.186;11.526;2023-02-02T15:25:47;21.20;62.40
34640;DHT22;22600;48.186;11.526;2023-02-02T15:30:58;21.20;62.40
34640;DHT22;22600;48.186;11.526;2023-02-02T15:33:40;21.30;62.50
34640;DHT22;22600;48.186;11.526;2023-02-02T15:38:44;21.30;62.60
34640;DHT22;22600;48.186;11.526;2023-02-02T15:41:31;24.70;64.70
34640;DHT22;22600;48.186;11.526;2023-02-02T15:43:57;21.30;62.50
34640;DHT22;22600;48.186;11.526;2023-02-02T15:46:29;21.30;62.50
34640;DHT22;22600;48.186;11.526;2023-02-02T15:51:52;21.20;62.50
34640;DHT22;22600;48.186;11.526;2023-02-02T15:54:30;21.20;62.60
34640;DHT22;22600;48.186;11.526;2023-02-02T15:56:58;21.20;62.50
34640;DHT22;22600;48.186;11.526;2023-02-02T15:59:27;21.30;62.60
34640;DHT22;22600;48.186;11.526;2023-02-02T16:04:39;21.20;62.60
34640;DHT22;22600;48.186;11.526;2023-02-02T16:07:17;21.20;62.70
34640;DHT22;22600;48.186;11.526;2023-02-02T16:09:43;21.20;62.90
34640;DHT22;22600;48.186;11.526;2023-02-02T16:12:35;21.20;63.40
34640;DHT22;22600;48.186;11.526;2023-02-02T16:15:18;21.20;62.90
34640;DHT22;22600;48.186;11.526;2023-02-02T16:17:44;21.20;63.00
34640;DHT22;22600;48.186;11.526;2023-02-02T16:20:12;21.20;63.10
34640;DHT22;22600;48.186;11.526;2023-02-02T16:22:39;21.20;63.10
34640;DHT22;22600;48.186;11.526;2023-02-02T16:25:13;21.20;63.10
34640;DHT22;22600;48.186;11.526;2023-02-02T16:27:43;21.20;63.20
34640;DHT22;22600;48.186;11.526;2023-02-02T16:30:20;21.20;63.90
34640;DHT22;22600;48.186;11.526;2023-02-02T16:32:47;21.20;63.40
34640;DHT22;22600;48.186;11.526;2023-02-02T16:35:42;21.20;63.50
34640;DHT22;22600;48.186;11.526;2023-02-02T16:40:37;22.20;64.40
34640;DHT22;22600;48.186;11.526;2023-02-02T16:43:17;21.20;63.80
34640;DHT22;22600;48.186;11.526;2023-02-02T16:48:34;21.20;63.80
34640;DHT22;22600;48.186;11.526;2023-02-02T16:51:27;21.20;64.00
34640;DHT22;22600;48.186;11.526;2023-02-02T16:56:38;21.20;64.30
34640;DHT22;22600;48.186;11.526;2023-02-02T16:59:24;21.20;64.40
34640;DHT22;22600;48.186;11.526;2023-02-02T17:01:55;21.30;64.60
34640;DHT22;22600;48.186;11.526;2023-02-02T17:04:31;21.20;64.50
34640;DHT22;22600;48.186;11.526;2023-02-02T17:07:24;21.30;64.70
34640;DHT22;22600;48.186;11.526;2023-02-02T17:10:24;21.20;64.60
34640;DHT22;22600;48.186;11.526;2023-02-02T17:12:50;21.20;64.60
34640;DHT22;22600;48.186;11.526;2023-02-02T17:17:43;21.30;64.90
34640;DHT22;22600;48.186;11.526;2023-02-02T17:20:09;21.20;64.70
34640;DHT22;22600;48.186;11.526;2023-02-02T17:22:40;21.30;64.90
34640;DHT22;22600;48.186;11.526;2023-02-02T17:25:13;21.30;64.90
34640;DHT22;22600;48.186;11.526;2023-02-02T17:27:41;21.30;65.00
34640;DHT22;22600;48.186;11.526;2023-02-02T17:30:08;21.30;65.00
34640;DHT22;22600;48.186;11.526;2023-02-02T17:32:37;21.30;65.10
34640;DHT22;22600;48.186;11.526;2023-02-02T17:35:13;21.30;64.70
34640;DHT22;22600;48.186;11.526;2023-02-02T17:37:39;21.30;64.90
34640;DHT22;22600;48.186;11.526;2023-02-02T17:40:05;21.30;64.90
34640;DHT22;22600;48.186;11.526;2023-02-02T17:44:58;21.30;63.80
34640;DHT22;22600;48.186;11.526;2023-02-02T17:47:24;21.30;63.60
34640;DHT22;22600;48.186;11.526;2023-02-02T17:49:49;21.30;63.70
34640;DHT22;22600;48.186;11.526;2023-02-02T17:52:15;21.30;64.10
34640;DHT22;22600;48.186;11.526;2023-02-02T17:54:41;21.30;64.40
34640;DHT22;22600;48.186;11.526;2023-02-02T17:57:06;21.30;64.60
34640;DHT22;22600;48.186;11.526;2023-02-02T17:59:32;21.30;64.80
34640;DHT22;22600;48.186;11.526;2023-02-02T18:01:57;21.30;65.00
34640;DHT22;22600;48.186;11.526;2023-02-02T18:04:23;21.30;65.30
34640;DHT22;22600;48.186;11.526;2023-02-02T18:09:16;21.40;64.90
34640;DHT22;22600;48.186;11.526;2023-02-02T18:11:42;21.30;64.40
34640;DHT22;22600;48.186;11.526;2023-02-02T18:14:09;21.40;64.50
34640;DHT22;22600;48.186;11.526;2023-02-02T18:16:35;21.40;64.70
34640;DHT22;22600;48.186;11.526;2023-02-02T18:19:01;21.40;64.80
34640;DHT22;22600;48.186;11.526;2023-02-02T18:21:27;21.40;64.90
34640;DHT22;22600;48.186;11.526;2023-02-02T18:23:54;21.40;65.10
34640;DHT22;22600;48.186;11.526;2023-02-02T18:26:20;21.40;65.00
34640;DHT22;22600;48.186;11.526;2023-02-02T18:28:47;21.40;65.10
34640;DHT22;22600;48.186;11.526;2023-02-02T18:31:16;21.40;65.30
34640;DHT22;22600;48.186;11.526;2023-02-02T18:33:42;21.40;65.50
34640;DHT22;22600;48.186;11.526;2023-02-02T18:36:10;21.40;65.80
34640;DHT22;22600;48.186;11.526;2023-02-02T18:38:37;21.40;65.90
34640;DHT22;22600;48.186;11.526;2023-02-02T18:41:03;21.50;65.90
34640;DHT22;22600;48.186;11.526;2023-02-02T18:46:01;21.40;66.00
34640;DHT22;22600;48.186;11.526;2023-02-02T18:48:27;21.40;66.00